^^
Datos históricos de la estación: Murcia-Puente Tocinos
Diario Informe para Agosto 7, 2019 Unidades:  Ingés    Métrico   Ambas
Diario Semanal Mensual Anual
  Máxima: Mínima: Promedio:
Temperatura: 82 °F 71.2 °F 75.7 °F
Punto de rocio: 67.8 °F 62.4 °F 65.1 °F
Humedad: 84% 52.1% 70%
Velocidad viento: 11.2mph 0mph 5.2mph
Racha viento: 22mph - -
Viento- - Este
Presión: 30.1 in 30 in -
Precipitación: 0 in    
 
 
Tabla de datos para Agosto 7, 2019
Hora Temperatura Punto de rocio Presión Viento Velocidad viento Racha viento Humedad Intensidad lluvia(por hora) Nubes
00:04 74.7 °F 67.3 °F 30 in NE 4.3 mph 7 mph 78% 0 in
00:09 74.7 °F 67.3 °F 30 in NE 4.3 mph 9.2 mph 78% 0 in
00:14 74.7 °F 67.5 °F 30 in NE 4.3 mph 9 mph 78.2% 0 in
00:19 74.7 °F 67.6 °F 30 in NE 4.3 mph 8 mph 79% 0 in
00:24 74.5 °F 67.5 °F 30 in NE 4 mph 6.9 mph 79% 0 in
00:29 74.5 °F 67.8 °F 30 in NE 4 mph 7 mph 79.8% 0 in
00:34 74.1 °F 67.6 °F 30 in NE 3.6 mph 6.9 mph 80% 0 in
00:39 74.1 °F 67.6 °F 30 in NE 3.7 mph 7 mph 80% 0 in
00:44 73.9 °F 67.6 °F 30 in NE 4.3 mph 7 mph 80.4% 0 in
00:49 74.1 °F 67.8 °F 30 in NE 4.3 mph 7 mph 81% 0 in
00:54 74.1 °F 67.8 °F 30 in NE 4 mph 6 mph 81% 0 in
00:59 74.1 °F 67.8 °F 30 in NE 3.9 mph 6 mph 81% 0 in
01:04 74.1 °F 67.8 °F 30 in NE 3.6 mph 6.9 mph 81% 0 in
01:09 74.1 °F 67.8 °F 30 in NE 3.7 mph 7.4 mph 81% 0 in
01:14 74.1 °F 67.8 °F 30 in NE 4.3 mph 7 mph 81% 0 in
01:19 73.9 °F 67.6 °F 30 in NE 4.3 mph 6.9 mph 81% 0 in
01:24 73.9 °F 67.6 °F 30 in NE 4 mph 7 mph 81% 0 in
01:29 73.8 °F 67.8 °F 30 in NE 4.1 mph 7 mph 81.8% 0 in
01:34 73.8 °F 67.6 °F 30 in NE 4.7 mph 7 mph 81.4% 0 in
01:39 73.6 °F 67.5 °F 30 in NE 4.7 mph 7 mph 81% 0 in
01:44 73.6 °F 67.5 °F 30 in NE 4.3 mph 7 mph 81% 0 in
01:49 73.6 °F 67.5 °F 30 in NE 4.3 mph 7 mph 81% 0 in
01:54 73.4 °F 67.3 °F 30 in NE 4.3 mph 7 mph 81% 0 in
01:59 73.4 °F 67.3 °F 30 in NE 4.2 mph 6.9 mph 81% 0 in
02:04 73.4 °F 67.3 °F 30 in NE 3.6 mph 7 mph 81% 0 in
02:09 73.4 °F 67.1 °F 30 in NE 3.7 mph 7 mph 81% 0 in
02:14 73.2 °F 66.9 °F 30 in NE 4 mph 7 mph 81% 0 in
02:19 73.2 °F 66.9 °F 30 in NE 4 mph 7 mph 81% 0 in
02:24 73.2 °F 66.9 °F 30 in NE 4 mph 6 mph 81% 0 in
02:29 73.2 °F 66.9 °F 30 in NE 3.9 mph 5.2 mph 81% 0 in
02:34 73.2 °F 66.9 °F 30 in NE 3.1 mph 5.2 mph 81% 0 in
02:39 73.2 °F 66.9 °F 30 in NE 3.1 mph 5.2 mph 81% 0 in
02:44 73.2 °F 66.9 °F 30 in NE 3.1 mph 5 mph 81% 0 in
02:49 73.2 °F 66.9 °F 30 in North 3 mph 5 mph 81% 0 in
02:54 73.2 °F 66.9 °F 30 in NNO 2.4 mph 4 mph 81% 0 in
02:59 73.2 °F 66.9 °F 30 in NNE 2.2 mph 3.6 mph 81% 0 in
03:04 73.2 °F 66.9 °F 30 in NNE 1.4 mph 4.6 mph 81% 0 in
03:09 73 °F 66.9 °F 30 in NNE 1.6 mph 5.2 mph 81% 0 in
03:14 73 °F 66.9 °F 30 in NNE 2.4 mph 5 mph 81% 0 in
03:19 73 °F 66.9 °F 30 in NNE 2.5 mph 5 mph 81% 0 in
03:24 73 °F 66.9 °F 30 in North 2.9 mph 5 mph 81% 0 in
03:29 73 °F 66.7 °F 30 in NNE 2.8 mph 3.6 mph 81% 0 in
03:34 72.9 °F 66.9 °F 30 in North 2 mph 4 mph 81.4% 0 in
03:39 72.9 °F 66.9 °F 30 in NNO 2 mph 4 mph 82% 0 in
03:44 72.9 °F 66.7 °F 30 in North 1.8 mph 2.4 mph 81.3% 0 in
03:49 72.9 °F 66.9 °F 30 in NNE 1.6 mph 2.4 mph 82% 0 in
03:54 72.9 °F 66.9 °F 30 in Calm   4.6 mph 82% 0 in
03:59 72.9 °F 66.9 °F 30 in NNO 0.3 mph 5 mph 82% 0 in
04:04 72.9 °F 66.9 °F 30 in NNO 1.8 mph 4 mph 82% 0 in
04:09 72.7 °F 66.9 °F 30 in North 1.7 mph 4.6 mph 82% 0 in
04:14 72.7 °F 66.9 °F 30 in NNO 1.4 mph 5 mph 82% 0 in
04:19 72.7 °F 66.9 °F 30 in North 1.5 mph 5 mph 82% 0 in
04:24 72.7 °F 66.9 °F 30 in North 2 mph 4 mph 82% 0 in
04:29 72.7 °F 66.9 °F 30 in NNO 2 mph 3.6 mph 82% 0 in
04:34 72.5 °F 66.7 °F 30 in NNO 1.8 mph 4.6 mph 82% 0 in
04:39 72.3 °F 66.6 °F 30 in North 1.9 mph 5 mph 82% 0 in
04:44 72.3 °F 66.6 °F 30 in North 2.4 mph 5 mph 82% 0 in
04:49 72.3 °F 66.6 °F 30 in NNE 2.4 mph 5 mph 82% 0 in
04:54 72.3 °F 66.6 °F 30 in NE 2.4 mph 5 mph 82% 0 in
04:59 72.3 °F 66.6 °F 30 in NE 2.4 mph 5 mph 82% 0 in
05:04 72.3 °F 66.6 °F 30 in NNE 2.4 mph 5 mph 82% 0 in
05:09 72.5 °F 66.7 °F 30 in NE 2.5 mph 5 mph 82% 0 in
05:14 72.5 °F 66.9 °F 30 in NE 2.9 mph 5 mph 82.7% 0 in
05:19 72.5 °F 66.7 °F 30 in NE 2.9 mph 5.2 mph 82.1% 0 in
05:24 72.3 °F 66.6 °F 30 in NE 3.1 mph 5 mph 82% 0 in
05:29 72.3 °F 66.6 °F 30 in NE 3.1 mph 5 mph 82% 0 in
05:34 72.3 °F 66.6 °F 30 in NNE 3.1 mph 5 mph 82% 0 in
05:39 72.3 °F 66.6 °F 30 in NE 3.1 mph 5.2 mph 82% 0 in
05:44 72.3 °F 66.7 °F 30 in NNE 3.1 mph 5 mph 82.4% 0 in
05:49 72.1 °F 66.7 °F 30 in NNE 2.9 mph 5 mph 83% 0 in
05:54 72.1 °F 66.7 °F 30 in NNE 2 mph 5 mph 83% 0 in
05:59 72.1 °F 66.7 °F 30 in NE 2 mph 5 mph 83.2% 0 in
06:04 72 °F 66.9 °F 30 in NE 2 mph 5 mph 84% 0 in
06:09 72 °F 66.9 °F 30 in NE 2 mph 4.6 mph 84% 0 in
06:14 71.8 °F 66.7 °F 30 in ENE 1.8 mph 5 mph 84% 0 in
06:19 71.8 °F 66.7 °F 30 in NE 1.9 mph 5 mph 84% 0 in
06:24 71.8 °F 66.7 °F 30 in NE 2.4 mph 4 mph 84% 0 in
06:29 71.8 °F 66.7 °F 30 in NE 2.4 mph 4 mph 84% 0 in
06:34 71.8 °F 66.7 °F 30 in NE 2 mph 4 mph 84% 0 in
06:39 71.6 °F 66.6 °F 30 in NE 2 mph 5 mph 84% 0 in
06:44 71.6 °F 66.6 °F 30 in NNE 1.8 mph 4.6 mph 84% 0 in
06:49 71.4 °F 66.4 °F 30 in North 1.8 mph 5 mph 84% 0 in
06:54 71.4 °F 66.4 °F 30 in North 2 mph 3 mph 84% 0 in
06:59 71.4 °F 66.4 °F 30 in North 1.6 mph   84% 0 in
07:04 71.4 °F 66.4 °F 30 in Calm     84% 0 in
07:09 71.4 °F 66.4 °F 30 in NE 0.2 mph 3.5 mph 84% 0 in
07:14 71.4 °F 66.4 °F 30 in NE 1.4 mph 3 mph 84% 0 in
07:19 71.4 °F 66.4 °F 30 in NE 1.2 mph 3.6 mph 84% 0 in
07:24 71.4 °F 66.4 °F 30 in Calm   4 mph 84% 0 in
07:29 71.4 °F 66.4 °F 30 in ESE 0.2 mph 3.5 mph 84% 0 in
07:34 71.4 °F 66.4 °F 30 in ESE 1.8 mph 3.5 mph 84% 0 in
07:39 71.4 °F 66.2 °F 30 in ESE 1.8 mph 4.6 mph 84% 0 in
07:44 71.2 °F 66.2 °F 30 in ESE 1.8 mph 5 mph 84% 0 in
07:49 71.2 °F 66.2 °F 30 in ESE 1.7 mph 4 mph 84% 0 in
07:54 71.2 °F 66 °F 30 in SE 1.4 mph 5 mph 83.3% 0 in
07:59 71.2 °F 66.2 °F 30 in ESE 1.4 mph 5 mph 83.9% 0 in
08:04 71.2 °F 66.2 °F 30 in ESE 1.4 mph   84% 0 in
08:09 71.4 °F 66.4 °F 30 in ESE 1.2 mph   84% 0 in
08:14 71.4 °F 66.4 °F 30 in Calm   3.5 mph 84% 0 in
08:19 71.4 °F 66.2 °F 30 in Oeste 0.2 mph 3 mph 84% 0 in
08:24 71.4 °F 66.4 °F 30 in Oeste 1.4 mph 2.3 mph 84% 0 in
08:29 71.4 °F 66.4 °F 30 in NO 1.2 mph 2.3 mph 84% 0 in
08:34 71.6 °F 66.6 °F 30 in Calm   2.9 mph 84% 0 in
08:39 71.8 °F 66.7 °F 30 in Calm   3 mph 84% 0 in
08:44 72 °F 66.6 °F 30 in Calm   3.5 mph 83.1% 0 in
08:49 72.1 °F 66.6 °F 30 in NNO 0.2 mph 3.5 mph 83% 0 in
08:54 72.1 °F 66.6 °F 30 in NNO 1.4 mph 4.7 mph 82.6% 0 in
08:59 72.3 °F 66.6 °F 30 in North 1.6 mph 5 mph 82.2% 0 in
09:04 72.5 °F 66.9 °F 30 in NNO 2.4 mph 5.2 mph 82.6% 0 in
09:09 72.7 °F 66.9 °F 30 in North 2.5 mph 5 mph 82% 0 in
09:14 73 °F 67.1 °F 30 in NNE 2.9 mph 5.8 mph 82% 0 in
09:19 73.2 °F 67.1 °F 30 in NNE 2.9 mph 6.9 mph 81.1% 0 in
09:24 73.2 °F 67.1 °F 30 in NNE 3.1 mph 7 mph 81% 0 in
09:29 73.2 °F 67.1 °F 30 in NNE 3.2 mph 7 mph 81% 0 in
09:34 73.6 °F 67.3 °F 30 in NE 4 mph 6 mph 81% 0 in
09:39 73.8 °F 67.3 °F 30 in NE 3.9 mph 5 mph 80% 0 in
09:44 73.9 °F 67.5 °F 30 in NE 2.9 mph 5.2 mph 80% 0 in
09:49 73.9 °F 67.5 °F 30.1 in ENE 2.9 mph 5.9 mph 80% 0 in
09:54 74.1 °F 67.6 °F 30.1 in NE 3.1 mph 6 mph 80% 0 in
09:59 74.5 °F 67.6 °F 30.1 in North 3 mph 5 mph 79.5% 0 in
10:04 74.7 °F 67.6 °F 30.1 in NO 2.4 mph 6.9 mph 79% 0 in
10:09 74.7 °F 67.5 °F 30.1 in NNE 2.4 mph 7 mph 78.3% 0 in
10:14 75 °F 67.5 °F 30.1 in NE 2.4 mph 6.9 mph 77.8% 0 in
10:19 75.2 °F 67.3 °F 30.1 in NNE 2.5 mph 7 mph 76.7% 0 in
10:24 75.4 °F 67.5 °F 30.1 in NNE 3.1 mph 7 mph 76.8% 0 in
10:29 75.6 °F 67.5 °F 30.1 in North 3.2 mph 8.1 mph 76% 0 in
10:34 75.7 °F 67.3 °F 30.1 in NE 4.3 mph 9.7 mph 74.9% 0 in
10:39 76.1 °F 67.1 °F 30.1 in NE 4.6 mph 13 mph 73.5% 0 in
10:44 76.5 °F 67.3 °F 30.1 in NE 6.4 mph 13 mph 73.3% 0 in
10:49 76.8 °F 67.1 °F 30.1 in NE 6.4 mph 13 mph 72.2% 0 in
10:54 77 °F 66.9 °F 30.1 in NE 6.2 mph 10 mph 71% 0 in
10:59 77.4 °F 67.1 °F 30.1 in NE 6 mph 13.5 mph 70.8% 0 in
11:04 77 °F 66.6 °F 30.1 in NE 5.2 mph 15 mph 70.3% 0 in
11:09 77.2 °F 66.7 °F 30.1 in NE 5.5 mph 15 mph 70.6% 0 in
11:14 76.8 °F 66.6 °F 30.1 in NE 7.4 mph 13 mph 70.5% 0 in
11:19 76.8 °F 66.4 °F 30.1 in NE 7.5 mph 13 mph 70.3% 0 in
11:24 76.8 °F 66.4 °F 30.1 in NE 8.1 mph 15 mph 70% 0 in
11:29 77 °F 66.6 °F 30.1 in NE 8.1 mph 15 mph 70% 0 in
11:34 77.4 °F 66.2 °F 30.1 in NE 8.1 mph 13.8 mph 68.5% 0 in
11:39 77.7 °F 66.2 °F 30.1 in Este 8 mph 14 mph 68% 0 in
11:44 78.3 °F 66.6 °F 30.1 in ENE 7.6 mph 11.2 mph 67.2% 0 in
11:49 78.4 °F 66.6 °F 30.1 in NE 7.5 mph 12 mph 67% 0 in
11:54 78.3 °F 66.2 °F 30.1 in ENE 6.4 mph 12.5 mph 66.6% 0 in
11:59 78.3 °F 65.3 °F 30.1 in Este 6.6 mph 13.8 mph 64.6% 0 in
12:04 78.3 °F 65.5 °F 30.1 in ENE 7.4 mph 14 mph 64.8% 0 in
12:09 78.3 °F 64.8 °F 30.1 in NE 7.3 mph 14 mph 63.2% 0 in
12:14 78.3 °F 64.6 °F 30.1 in NE 6.9 mph 14 mph 62.9% 0 in
12:19 78.8 °F 64.8 °F 30.1 in ENE 7.1 mph 15.2 mph 62.4% 0 in
12:24 79.2 °F 65.1 °F 30 in Este 8.1 mph 15 mph 62% 0 in
12:29 79.3 °F 65.5 °F 30 in ENE 8 mph 13.8 mph 62.3% 0 in
12:34 79.5 °F 65.7 °F 30 in ENE 7.4 mph 15 mph 62.9% 0 in
12:39 79.2 °F 65.5 °F 30 in NE 7.7 mph 17.5 mph 63% 0 in
12:44 79.2 °F 65.1 °F 30 in ENE 10 mph 17 mph 62.3% 0 in
12:49 79.3 °F 63.7 °F 30 in NE 9.8 mph 18.4 mph 58.7% 0 in
12:54 79.3 °F 63.3 °F 30 in ENE 8.5 mph 18 mph 57.8% 0 in
12:59 79.9 °F 63.5 °F 30 in ENE 8.5 mph 15 mph 57.5% 0 in
13:04 80.2 °F 64 °F 30 in ENE 8.7 mph 16.8 mph 57.8% 0 in
13:09 80.4 °F 64 °F 30 in ENE 8.7 mph 17.3 mph 57.3% 0 in
13:14 80.4 °F 63.5 °F 30 in NE 8.5 mph 17 mph 56.5% 0 in
13:19 80.8 °F 64 °F 30 in ENE 8.5 mph 16.1 mph 57% 0 in
13:24 81.1 °F 63.9 °F 30 in ENE 8.5 mph 16 mph 55.7% 0 in
13:29 81 °F 63.7 °F 30 in ENE 8.5 mph 17.3 mph 55.6% 0 in
13:34 80.8 °F 63 °F 30 in ENE 8.5 mph 18.4 mph 54.7% 0 in
13:39 80.8 °F 63 °F 30 in ENE 8.6 mph 18.5 mph 54.5% 0 in
13:44 81 °F 63.3 °F 30 in ENE 9.7 mph 19 mph 55.1% 0 in
13:49 81.1 °F 63.3 °F 30 in ENE 9.7 mph 19.7 mph 54.9% 0 in
13:54 81.1 °F 63.1 °F 30 in Este 9.7 mph 20 mph 54.5% 0 in
13:59 81 °F 63.3 °F 30 in NE 9.8 mph 18.5 mph 54.9% 0 in
14:04 81.1 °F 63 °F 30 in NE 10 mph 19 mph 54% 0 in
14:09 81.1 °F 63.9 °F 30 in Este 9.9 mph 18.4 mph 55.7% 0 in
14:14 81.3 °F 63.5 °F 30 in NE 9.7 mph 17.3 mph 54.7% 0 in
14:19 81.5 °F 63.7 °F 30 in NE 9.6 mph 17 mph 54.7% 0 in
14:24 81.9 °F 63.9 °F 30 in ENE 9.2 mph 16.1 mph 54.6% 0 in
14:29 82 °F 63.1 °F 30 in ENE 9.1 mph 16 mph 52.9% 0 in
14:34 81.9 °F 63.5 °F 30 in Este 8.5 mph 18.1 mph 53.8% 0 in
14:39 82 °F 63.3 °F 30 in ENE 8.4 mph 18.4 mph 53.3% 0 in
14:44 81.9 °F 63 °F 30 in ENE 8.1 mph 18 mph 53% 0 in
14:49 81.9 °F 63.1 °F 30 in ENE 8 mph 16.1 mph 53% 0 in
14:54 82 °F 63.1 °F 30 in Este 7.6 mph 15 mph 53.1% 0 in
14:59 82 °F 63.1 °F 30 in Este 8 mph 17.5 mph 53% 0 in
15:04 81.5 °F 62.8 °F 30 in Este 9.7 mph 18.4 mph 53.2% 0 in
15:09 81.9 °F 64 °F 30 in ENE 9.5 mph 18 mph 54.9% 0 in
15:14 81.9 °F 63.7 °F 30 in ENE 8.5 mph 16 mph 54.1% 0 in
15:19 81.7 °F 63.3 °F 30 in NE 8.6 mph 17.3 mph 53.8% 0 in
15:24 81.7 °F 63.7 °F 30 in Este 9.2 mph 17 mph 54.6% 0 in
15:29 81.9 °F 62.6 °F 30 in ENE 9.2 mph 16 mph 52.3% 0 in
15:34 81.7 °F 62.4 °F 30 in NE 9.2 mph 16.1 mph 52.1% 0 in
15:39 81.5 °F 62.8 °F 30 in Este 9.1 mph 16 mph 53% 0 in
15:44 81.1 °F 63 °F 30 in ENE 8.5 mph 15.6 mph 54.1% 0 in
15:49 81.3 °F 63.3 °F 30 in Este 8.4 mph 16.1 mph 54.5% 0 in
15:54 81.1 °F 63.5 °F 30 in ENE 8.1 mph 17 mph 55% 0 in
15:59 80.8 °F 63.3 °F 30 in ENE 8.2 mph 17.3 mph 55.3% 0 in
16:04 80.8 °F 63.7 °F 30 in ENE 8.7 mph 17 mph 56% 0 in
16:09 80.8 °F 63.9 °F 30 in ENE 8.6 mph 20.7 mph 56.5% 0 in
16:14 80.4 °F 63.9 °F 30 in ENE 8.1 mph 21 mph 57.1% 0 in
16:19 80.6 °F 64.6 °F 30 in ENE 8.1 mph 15 mph 58% 0 in
16:24 80.4 °F 63.9 °F 30 in ENE 8.1 mph 16.1 mph 57.2% 0 in
16:29 80.2 °F 63.9 °F 30 in Este 8.3 mph 16 mph 57.4% 0 in
16:34 80.1 °F 63.9 °F 30 in ESE 9.7 mph 17.5 mph 57.8% 0 in
16:39 80.2 °F 64 °F 30 in ENE 9.8 mph 19.2 mph 58% 0 in
16:44 80.1 °F 64 °F 30 in ENE 10 mph 20 mph 58% 0 in
16:49 80.1 °F 64 °F 30 in ENE 9.8 mph 18 mph 58% 0 in
16:54 80.1 °F 63.9 °F 30 in Este 8.7 mph 16.1 mph 58.1% 0 in
16:59 80.1 °F 63.7 °F 30 in NE 8.6 mph 14 mph 57.2% 0 in
17:04 80.1 °F 63.9 °F 30 in NE 8.1 mph 16.1 mph 57.7% 0 in
17:09 80.2 °F 63.7 °F 30 in NE 8.3 mph 21.3 mph 57.3% 0 in
17:14 79.9 °F 63.3 °F 30 in ENE 9.2 mph 21 mph 57.1% 0 in
17:19 79.9 °F 63.3 °F 30 in ENE 9.3 mph 18 mph 57% 0 in
17:24 79.9 °F 63.7 °F 30 in ENE 10.2 mph 17.8 mph 57.7% 0 in
17:29 80.2 °F 63.9 °F 30 in NE 10 mph 18.4 mph 57.5% 0 in
17:34 80.2 °F 63.7 °F 30 in ENE 8.7 mph 18 mph 57% 0 in
17:39 80.2 °F 63.5 °F 30 in ENE 8.4 mph 21.5 mph 56.8% 0 in
17:44 80.1 °F 63.5 °F 30 in ENE 6.9 mph 22 mph 57% 0 in
17:49 79.7 °F 63.3 °F 30 in NE 7.2 mph 22 mph 57.3% 0 in
17:54 79.5 °F 63.3 °F 30 in ENE 9.2 mph 18.4 mph 58% 0 in
17:59 79.3 °F 63.1 °F 30 in ENE 9.4 mph 18 mph 57.8% 0 in
18:04 79.3 °F 63.5 °F 30 in Este 10.2 mph 19.6 mph 58.3% 0 in
18:09 79.3 °F 63.7 °F 30 in ENE 10.1 mph 20 mph 58.6% 0 in
18:14 79.2 °F 63.1 °F 30 in NE 9.7 mph 20.8 mph 58% 0 in
18:19 79.2 °F 63 °F 30 in NE 9.9 mph 21 mph 58% 0 in
18:24 79 °F 63 °F 30 in ENE 11.2 mph 20 mph 58% 0 in
18:29 79.2 °F 62.4 °F 30 in NE 11.1 mph 21.9 mph 56.6% 0 in
18:34 79.2 °F 62.4 °F 30 in NE 10 mph 22 mph 56.6% 0 in
18:39 79 °F 63 °F 30 in NE 9.8 mph 17.3 mph 58% 0 in
18:44 78.6 °F 63.3 °F 30 in NE 8.7 mph 17 mph 59.3% 0 in
18:49 78.4 °F 63.7 °F 30 in NE 8.6 mph 16.1 mph 60.4% 0 in
18:54 78.3 °F 63.7 °F 30 in NE 8.1 mph 18.4 mph 60.8% 0 in
18:59 78.1 °F 63.9 °F 30 in ENE 8.1 mph 18 mph 61.7% 0 in
19:04 78.1 °F 63.5 °F 30 in NE 8.1 mph 17.3 mph 61.2% 0 in
19:09 77.7 °F 63.1 °F 30 in NE 8.3 mph 17.5 mph 61% 0 in
19:14 77.5 °F 63.3 °F 30 in NE 9.7 mph 17.3 mph 61.7% 0 in
19:19 77.5 °F 63.3 °F 30 in ENE 9.6 mph 21.9 mph 61.7% 0 in
19:24 77.4 °F 62.8 °F 30 in NE 8.7 mph 22 mph 61% 0 in
19:29 77.2 °F 63.1 °F 30 in NE 8.9 mph 19 mph 62% 0 in
19:34 76.8 °F 62.4 °F 30 in NE 10.2 mph 19 mph 61.3% 0 in
19:39 76.8 °F 62.8 °F 30 in NE 10.3 mph 18.4 mph 62% 0 in
19:44 76.6 °F 62.6 °F 30 in ENE 10.7 mph 16.1 mph 62% 0 in
19:49 76.6 °F 62.6 °F 30 in NE 10.4 mph 17.5 mph 62% 0 in
19:54 76.6 °F 62.6 °F 30 in ENE 8.5 mph 17 mph 62% 0 in
19:59 76.5 °F 62.6 °F 30 in ENE 8.3 mph 14 mph 62.1% 0 in
20:04 76.5 °F 62.4 °F 30 in ENE 7.4 mph 12 mph 62% 0 in
20:09 76.5 °F 62.6 °F 30 in NE 7.3 mph 18.4 mph 62.5% 0 in
20:14 76.3 °F 62.8 °F 30 in NE 6.9 mph 18 mph 63% 0 in
20:19 76.1 °F 63 °F 30 in ENE 6.9 mph 14 mph 64% 0 in
20:24 75.9 °F 63 °F 30 in NE 6.9 mph 15 mph 64% 0 in
20:29 75.9 °F 63 °F 30 in ENE 7 mph 15 mph 64.4% 0 in
20:34 75.7 °F 63.1 °F 30 in NE 7.6 mph 14 mph 65% 0 in
20:39 75.7 °F 63.1 °F 30 in ENE 7.6 mph 14.5 mph 65% 0 in
20:44 75.6 °F 63 °F 30 in NE 7.4 mph 14 mph 65% 0 in
20:49 75.6 °F 63 °F 30 in NE 7.3 mph 12 mph 65% 0 in
20:54 75.6 °F 63 °F 30 in NE 6.2 mph 12.7 mph 65% 0 in
20:59 75.4 °F 62.8 °F 30 in NE 6 mph 13 mph 65% 0 in
21:04 75.4 °F 62.8 °F 30 in NE 5.4 mph 10.4 mph 65% 0 in
21:09 75.2 °F 62.6 °F 30 in ENE 5.4 mph 10 mph 65% 0 in
21:14 75.2 °F 63.1 °F 30 in ENE 5.2 mph 8 mph 65.9% 0 in
21:19 75 °F 63 °F 30 in NE 5 mph 6 mph 65.9% 0 in
21:24 75 °F 63 °F 30 in NE 3.6 mph 6 mph 66% 0 in
21:29 75 °F 62.8 °F 30 in ENE 3.5 mph 6 mph 65.6% 0 in
21:34 75 °F 62.6 °F 30 in NE 3.1 mph 7.4 mph 65.5% 0 in
21:39 74.8 °F 62.8 °F 30 in NE 3.2 mph 7 mph 66% 0 in
21:44 74.8 °F 62.8 °F 30 in ENE 3.6 mph 6 mph 66% 0 in
21:49 74.8 °F 62.8 °F 30 in ENE 3.4 mph 6 mph 66% 0 in
21:54 74.8 °F 62.8 °F 30 in NE 2.4 mph 5.2 mph 66% 0 in
21:59 74.8 °F 62.8 °F 30 in NE 2.5 mph 5.9 mph 66% 0 in
22:04 74.8 °F 62.8 °F 30 in NE 2.9 mph 6 mph 66% 0 in
22:09 74.7 °F 62.6 °F 30 in NE 2.9 mph 6 mph 66% 0 in
22:14 74.7 °F 62.4 °F 30 in NNE 2.9 mph 5 mph 66% 0 in
22:19 74.7 °F 62.4 °F 30 in NE 2.9 mph 5.8 mph 66% 0 in
22:24 74.7 °F 62.4 °F 30 in ENE 2.9 mph 6 mph 66% 0 in
22:29 74.7 °F 62.4 °F 30 in Este 2.9 mph 6 mph 66% 0 in
22:34 74.7 °F 62.4 °F 30.1 in Este 2.9 mph 6 mph 66% 0 in
22:39 74.7 °F 62.4 °F 30.1 in ENE 2.8 mph 5 mph 66% 0 in
22:44 74.5 °F 62.8 °F 30.1 in ENE 2.4 mph 6.9 mph 66.9% 0 in
22:49 74.5 °F 62.8 °F 30.1 in NE 2.5 mph 7 mph 67% 0 in
22:54 74.5 °F 62.8 °F 30.1 in NNE 2.9 mph 5 mph 67% 0 in
22:59 74.3 °F 62.6 °F 30.1 in NNE 2.7 mph 4.6 mph 67.1% 0 in
23:04 74.1 °F 63 °F 30.1 in NNE 1.8 mph 5 mph 68% 0 in
23:09 74.1 °F 62.8 °F 30.1 in NE 1.9 mph 5 mph 68% 0 in
23:14 73.9 °F 62.8 °F 30.1 in NE 2.4 mph 5 mph 68% 0 in
23:19 73.9 °F 62.8 °F 30.1 in NE 2.2 mph 2.4 mph 68% 0 in
23:24 73.9 °F 62.8 °F 30.1 in North 1.4 mph 4.6 mph 68% 0 in
23:29 73.9 °F 63 °F 30.1 in NNO 1.5 mph 5 mph 68.8% 0 in
23:34 73.8 °F 63 °F 30.1 in NNO 2 mph 5 mph 69% 0 in
23:39 73.8 °F 63 °F 30.1 in NNO 2.1 mph 5 mph 69% 0 in
23:44 73.8 °F 63 °F 30.1 in NNO 2.4 mph 5 mph 69% 0 in
23:49 73.8 °F 63 °F 30.1 in NNO 2.5 mph 5 mph 69% 0 in
23:54 73.6 °F 63 °F 30.1 in NO 2.9 mph 5 mph 69.3% 0 in
23:59 73.6 °F 63.1 °F 30.1 in NO 2.8 mph 5 mph 70% 0 in
Murcia-Puente Tocinos, España
Compliments of Weather Underground - 2.75 mb

La estación de MeteoMurcia.com, publica sus datos en los siguientes proyectos:

Weather Underground PWS IMURCIAP2 Meteoclimatic www.awekas.at

W3Counter
Web Analytics